createdAt,value
2022-09-03T00:02:13.267Z,101867.53
2022-09-03T00:04:57.321Z,101865.38
2022-09-03T00:07:32.090Z,101860.03
2022-09-03T00:10:04.865Z,101861.97
2022-09-03T00:12:39.529Z,101846.97
2022-09-03T00:15:06.082Z,101851.13
2022-09-03T00:17:54.574Z,101857.22
2022-09-03T00:20:24.096Z,101856.16
2022-09-03T00:22:57.469Z,101860.97
2022-09-03T00:25:50.256Z,101857.75
2022-09-03T00:28:26.607Z,101860.44
2022-09-03T00:31:18.234Z,101866.03
2022-09-03T00:33:48.129Z,101862.69
2022-09-03T00:36:48.103Z,101858.00
2022-09-03T00:39:20.733Z,101868.59
2022-09-03T00:42:08.115Z,101867.31
2022-09-03T00:45:12.131Z,101873.97
2022-09-03T00:47:44.724Z,101864.09
2022-09-03T00:50:17.235Z,101865.38
2022-09-03T00:52:45.851Z,101861.44
2022-09-03T00:55:27.544Z,101861.16
2022-09-03T00:58:51.788Z,101859.66
2022-09-03T01:01:24.114Z,101853.75
2022-09-03T01:04:21.583Z,101855.63
2022-09-03T01:07:15.998Z,101849.09
2022-09-03T01:10:03.729Z,101849.84
2022-09-03T01:12:58.197Z,101850.16
2022-09-03T01:15:27.464Z,101853.69
2022-09-03T01:18:07.200Z,101854.09
2022-09-03T01:20:35.041Z,101852.53
2022-09-03T01:23:20.485Z,101854.03
2022-09-03T01:26:14.666Z,101854.09
2022-09-03T01:29:01.606Z,101851.41
2022-09-03T01:31:35.317Z,101847.41
2022-09-03T01:34:39.488Z,101851.47
2022-09-03T01:37:14.607Z,101851.91
2022-09-03T01:40:02.442Z,101848.75
2022-09-03T01:42:54.328Z,101850.28
2022-09-03T01:45:35.344Z,101851.34
2022-09-03T01:48:20.123Z,101859.38
2022-09-03T01:51:10.931Z,101852.50
2022-09-03T01:53:59.167Z,101855.59
2022-09-03T01:56:37.726Z,101858.03
2022-09-03T01:59:31.426Z,101842.91
2022-09-03T02:02:23.453Z,101843.31
2022-09-03T02:05:04.255Z,101848.84
2022-09-03T02:07:34.729Z,101843.91
2022-09-03T02:10:02.513Z,101849.25
2022-09-03T02:12:33.675Z,101850.78
2022-09-03T02:15:12.084Z,101844.47
2022-09-03T02:17:41.723Z,101851.94
2022-09-03T02:20:12.693Z,101848.66
2022-09-03T02:22:40.390Z,101842.22
2022-09-03T02:25:08.123Z,101849.59
2022-09-03T02:27:34.977Z,101847.53
2022-09-03T02:30:01.502Z,101839.16
2022-09-03T02:32:28.741Z,101837.03
2022-09-03T02:34:55.243Z,101834.97
2022-09-03T02:37:22.703Z,101836.22
2022-09-03T02:39:49.937Z,101827.97
2022-09-03T02:42:17.157Z,101822.16
2022-09-03T02:44:53.300Z,101830.25
2022-09-03T02:47:20.779Z,101831.22
2022-09-03T02:49:50.340Z,101824.72
2022-09-03T02:52:16.884Z,101817.34
2022-09-03T02:54:45.136Z,101812.09
2022-09-03T02:57:14.880Z,101820.41
2022-09-03T02:59:44.144Z,101809.56
2022-09-03T03:02:12.935Z,101818.47
2022-09-03T03:04:39.916Z,101802.06
2022-09-03T03:07:07.187Z,101805.91
2022-09-03T03:09:33.671Z,101808.19
2022-09-03T03:12:00.182Z,101807.59
2022-09-03T03:14:26.646Z,101805.59
2022-09-03T03:16:53.197Z,101813.13
2022-09-03T03:19:19.734Z,101805.69
2022-09-03T03:21:46.222Z,101811.06
2022-09-03T03:24:13.356Z,101815.59
2022-09-03T03:26:39.876Z,101818.56
2022-09-03T03:29:06.568Z,101812.56
2022-09-03T03:31:33.647Z,101814.44
2022-09-03T03:34:02.584Z,101804.72
2022-09-03T03:36:31.386Z,101799.19
2022-09-03T03:39:00.002Z,101790.97
2022-09-03T03:41:33.223Z,101791.53
2022-09-03T03:44:02.932Z,101787.56
2022-09-03T03:46:38.500Z,101792.31
2022-09-03T03:49:06.709Z,101797.38
2022-09-03T03:51:34.648Z,101784.84
2022-09-03T03:54:04.851Z,101799.31
2022-09-03T03:56:32.239Z,101792.56
2022-09-03T03:58:59.612Z,101795.34
2022-09-03T04:01:27.548Z,101790.06
2022-09-03T04:03:58.910Z,101793.53
2022-09-03T04:06:26.039Z,101798.19
2022-09-03T04:08:52.702Z,101803.88
2022-09-03T04:11:22.059Z,101794.06
2022-09-03T04:13:49.824Z,101794.91
2022-09-03T04:16:21.963Z,101803.03
2022-09-03T04:18:49.285Z,101804.75
2022-09-03T04:21:18.501Z,101794.09
2022-09-03T04:23:47.392Z,101798.50
2022-09-03T04:26:19.474Z,101812.78
2022-09-03T04:28:46.095Z,101806.97
2022-09-03T04:31:15.567Z,101808.19
2022-09-03T04:33:42.415Z,101816.94
2022-09-03T04:36:12.541Z,101812.91
2022-09-03T04:38:41.961Z,101815.78
2022-09-03T04:41:11.382Z,101819.22
2022-09-03T04:43:38.715Z,101816.44
2022-09-03T04:46:14.478Z,101818.34
2022-09-03T04:48:48.267Z,101819.63
2022-09-03T04:51:17.397Z,101814.19
2022-09-03T04:53:46.384Z,101819.69
2022-09-03T04:56:18.641Z,101820.56
2022-09-03T04:58:46.112Z,101826.84
2022-09-03T05:01:18.831Z,101822.34
2022-09-03T05:03:46.274Z,101822.91
2022-09-03T05:06:14.588Z,101822.31
2022-09-03T05:08:40.942Z,101835.03
2022-09-03T05:11:08.427Z,101830.03
2022-09-03T05:13:36.904Z,101833.13
2022-09-03T05:16:06.344Z,101834.69
2022-09-03T05:18:35.752Z,101845.34
2022-09-03T05:21:05.096Z,101837.16
2022-09-03T05:23:37.442Z,101837.94
2022-09-03T05:26:09.146Z,101842.38
2022-09-03T05:28:39.802Z,101847.34
2022-09-03T05:31:11.832Z,101842.31
2022-09-03T05:33:42.982Z,101843.81
2022-09-03T05:36:11.587Z,101836.31
2022-09-03T05:38:38.430Z,101845.38
2022-09-03T05:41:07.524Z,101838.13
2022-09-03T05:43:34.649Z,101837.34
2022-09-03T05:46:03.981Z,101833.09
2022-09-03T05:48:31.138Z,101827.25
2022-09-03T05:51:05.086Z,101831.09
2022-09-03T05:53:34.240Z,101825.19
2022-09-03T05:56:06.316Z,101826.28
2022-09-03T05:58:43.487Z,101830.66
2022-09-03T06:01:18.522Z,101836.44
2022-09-03T06:03:46.193Z,101832.91
2022-09-03T06:06:13.960Z,101844.06
2022-09-03T06:08:42.148Z,101841.53
2022-09-03T06:11:09.334Z,101843.09
2022-09-03T06:13:35.865Z,101852.06
2022-09-03T06:16:05.408Z,101869.88
2022-09-03T06:18:32.446Z,101868.53
2022-09-03T06:21:04.178Z,101869.38
2022-09-03T06:23:31.595Z,101885.09
2022-09-03T06:26:10.011Z,101878.16
2022-09-03T06:28:39.524Z,101893.19
2022-09-03T06:31:08.076Z,101888.25
2022-09-03T06:33:36.707Z,101900.91
2022-09-03T06:36:08.826Z,101902.81
2022-09-03T06:38:37.148Z,101904.97
2022-09-03T06:41:10.280Z,101899.28
2022-09-03T06:43:39.307Z,101909.69
2022-09-03T06:46:08.819Z,101907.31
2022-09-03T06:48:36.896Z,101908.09
2022-09-03T06:51:06.808Z,101924.47
2022-09-03T06:53:36.970Z,101923.84
2022-09-03T06:56:16.362Z,101922.38
2022-09-03T06:58:47.702Z,101931.38
2022-09-03T07:01:20.549Z,101926.13
2022-09-03T07:03:48.976Z,101932.88
2022-09-03T07:06:17.193Z,101929.84
2022-09-03T07:08:44.940Z,101942.13
2022-09-03T07:11:14.377Z,101936.06
2022-09-03T07:13:47.680Z,101951.19
2022-09-03T07:16:17.173Z,101958.50
2022-09-03T07:18:44.091Z,101954.00
2022-09-03T07:21:13.544Z,101960.53
2022-09-03T07:23:41.876Z,101964.31
2022-09-03T07:26:14.472Z,101962.34
2022-09-03T07:28:42.299Z,101962.25
2022-09-03T07:31:12.344Z,101958.44
2022-09-03T07:33:39.216Z,101950.72
2022-09-03T07:36:14.130Z,101960.94
2022-09-03T07:38:44.512Z,101952.16
2022-09-03T07:41:12.559Z,101960.22
2022-09-03T07:43:49.076Z,101949.03
2022-09-03T07:46:23.685Z,101939.91
2022-09-03T07:48:54.662Z,101947.00
2022-09-03T07:51:25.456Z,101942.81
2022-09-03T07:54:00.468Z,101943.72
2022-09-03T07:56:31.002Z,101940.91
2022-09-03T07:58:59.101Z,101944.78
2022-09-03T08:01:28.556Z,101944.44
2022-09-03T08:03:55.731Z,101941.03
2022-09-03T08:06:24.639Z,101939.44
2022-09-03T08:09:04.607Z,101929.34
2022-09-03T08:11:38.923Z,101935.84
2022-09-03T08:14:08.080Z,101915.22
2022-09-03T08:16:40.071Z,101920.19
2022-09-03T08:19:07.557Z,101926.31
2022-09-03T08:21:34.379Z,101917.31
2022-09-03T08:24:03.489Z,101904.84
2022-09-03T08:26:32.534Z,101898.19
2022-09-03T08:28:59.700Z,101880.72
2022-09-03T08:31:27.994Z,101881.59
2022-09-03T08:33:56.532Z,101882.28
2022-09-03T08:36:30.020Z,101881.31
2022-09-03T08:38:58.561Z,101881.25
2022-09-03T08:41:52.939Z,101871.56
2022-09-03T08:44:25.418Z,101865.22
2022-09-03T08:47:09.964Z,101852.66
2022-09-03T08:49:55.697Z,101843.41
2022-09-03T08:52:26.230Z,101837.53
2022-09-03T08:54:59.395Z,101830.16
2022-09-03T08:57:26.120Z,101826.28
2022-09-03T08:59:56.328Z,101797.13
2022-09-03T09:02:57.281Z,101775.78
2022-09-03T09:05:55.599Z,101768.69
2022-09-03T09:08:40.834Z,101730.03
2022-09-03T09:11:16.062Z,101722.91
2022-09-03T09:13:57.411Z,101700.19
2022-09-03T09:16:59.565Z,101672.06
2022-09-03T09:20:03.738Z,101657.59
2022-09-03T09:22:35.197Z,101665.13
2022-09-03T09:25:09.248Z,101631.03
2022-09-03T09:27:35.788Z,101598.63
2022-09-03T09:30:05.249Z,101586.16
2022-09-03T09:32:34.023Z,101576.75
2022-09-03T09:35:00.479Z,101582.56
2022-09-03T09:37:27.495Z,101580.53
2022-09-03T09:40:00.750Z,101558.59
2022-09-03T09:42:29.938Z,101543.66
2022-09-03T09:44:56.448Z,101552.09
2022-09-03T09:47:27.750Z,101535.81
2022-09-03T09:49:55.497Z,101540.63
2022-09-03T09:52:25.815Z,101529.38
2022-09-03T09:55:05.173Z,101501.13
2022-09-03T09:57:31.632Z,101511.22
2022-09-03T10:00:13.479Z,101528.31
2022-09-03T10:02:51.670Z,101528.44
2022-09-03T10:05:24.321Z,101516.78
2022-09-03T10:08:01.575Z,101537.78
2022-09-03T10:10:35.438Z,101534.84
2022-09-03T10:13:09.357Z,101553.28
2022-09-03T10:15:42.378Z,101516.03
2022-09-03T10:18:30.989Z,101511.38
2022-09-03T10:21:41.647Z,101523.44
2022-09-03T10:24:23.341Z,101497.34
2022-09-03T10:26:50.004Z,101472.66
2022-09-03T10:29:30.274Z,101468.19
2022-09-03T10:32:02.189Z,101474.28
2022-09-03T10:34:35.036Z,101474.03
2022-09-03T10:37:27.238Z,101457.56
2022-09-03T10:40:05.765Z,101455.25
2022-09-03T10:42:45.786Z,101452.88
2022-09-03T10:45:41.469Z,101434.06
2022-09-03T10:48:07.958Z,101397.63
2022-09-03T10:50:39.702Z,101350.06
2022-09-03T10:53:36.256Z,101304.38
2022-09-03T10:56:12.878Z,101208.84
2022-09-03T10:58:51.329Z,101256.63
2022-09-03T11:01:42.495Z,101193.03
2022-09-03T11:04:22.282Z,101186.69
2022-09-03T11:06:54.783Z,101111.50
2022-09-03T11:09:31.599Z,101183.47
2022-09-03T11:12:06.071Z,101283.97
2022-09-03T11:14:41.047Z,101275.41
2022-09-03T11:17:22.579Z,101256.50
2022-09-03T11:20:01.328Z,101228.09
2022-09-03T11:22:29.772Z,101099.50
2022-09-03T11:24:59.803Z,101158.06
2022-09-03T11:27:41.309Z,101203.25
2022-09-03T11:30:14.689Z,101134.59
2022-09-03T11:32:57.126Z,101094.44
2022-09-03T11:35:28.444Z,101135.03
2022-09-03T11:38:00.158Z,101048.63
2022-09-03T11:40:34.481Z,101118.81
2022-09-03T11:43:13.366Z,101228.31
2022-09-03T11:45:40.635Z,101154.53
2022-09-03T11:48:46.806Z,101025.03
2022-09-03T11:51:19.110Z,101024.66
2022-09-03T11:54:20.888Z,101094.25
2022-09-03T11:56:49.671Z,101045.47
2022-09-03T11:59:24.444Z,101056.03
2022-09-03T12:01:58.287Z,101063.03
2022-09-03T12:04:36.954Z,101130.09
2022-09-03T12:07:11.622Z,101126.41
2022-09-03T12:09:44.896Z,101073.06
2022-09-03T12:12:48.806Z,101106.88
2022-09-03T12:15:52.905Z,101148.16
2022-09-03T12:18:25.820Z,101148.97
2022-09-03T12:20:55.835Z,100940.88
2022-09-03T12:23:39.800Z,100852.53
2022-09-03T12:26:09.622Z,100896.50
2022-09-03T12:28:43.916Z,101020.44
2022-09-03T12:31:21.581Z,101124.84
2022-09-03T12:33:51.435Z,101147.75
2022-09-03T12:36:18.223Z,101133.50
2022-09-03T12:39:09.903Z,101057.69
2022-09-03T12:41:32.443Z,100944.00
2022-09-03T12:44:00.905Z,100945.44
2022-09-03T12:46:33.613Z,101027.72
2022-09-03T12:51:56.973Z,101110.88
2022-09-03T12:54:25.415Z,101195.66
2022-09-03T12:56:58.388Z,100993.34
2022-09-03T12:59:28.060Z,100884.75
2022-09-03T13:02:04.877Z,101007.84
2022-09-03T13:04:35.991Z,101094.97
2022-09-03T13:07:12.093Z,100973.59
2022-09-03T13:09:41.044Z,101076.06
2022-09-03T13:12:20.233Z,101213.50
2022-09-03T13:14:52.480Z,101317.06
2022-09-03T13:17:38.472Z,101337.34
2022-09-03T13:20:22.910Z,101337.81
2022-09-03T13:22:58.609Z,101358.63
2022-09-03T13:25:41.273Z,101216.06
2022-09-03T13:28:33.418Z,101139.84
2022-09-03T13:31:23.741Z,101225.06
2022-09-03T13:34:10.993Z,101353.16
2022-09-03T13:36:55.951Z,101414.59
2022-09-03T13:39:35.405Z,101410.38
2022-09-03T13:42:09.968Z,101259.81
2022-09-03T13:44:42.296Z,101246.28
2022-09-03T13:47:26.586Z,100992.88
2022-09-03T13:50:22.552Z,100913.44
2022-09-03T13:52:59.257Z,101047.81
2022-09-03T13:55:35.989Z,101214.47
2022-09-03T13:58:18.219Z,101314.59
2022-09-03T14:01:02.331Z,101261.41
2022-09-03T14:03:53.403Z,101334.97
2022-09-03T14:06:50.756Z,101263.28
2022-09-03T14:09:34.814Z,101010.16
2022-09-03T14:12:06.311Z,100958.63
2022-09-03T14:15:22.987Z,100829.22
2022-09-03T14:18:02.877Z,101013.50
2022-09-03T14:20:40.292Z,100963.59
2022-09-03T14:23:41.302Z,100964.13
2022-09-03T14:26:17.888Z,100927.81
2022-09-03T14:28:49.530Z,100751.66
2022-09-03T14:31:19.063Z,100730.38
2022-09-03T14:33:58.068Z,100821.59
2022-09-03T14:36:36.247Z,100888.69
2022-09-03T14:39:08.554Z,101089.44
2022-09-03T14:42:07.415Z,101192.78
2022-09-03T14:44:58.909Z,101087.59
2022-09-03T14:48:15.291Z,100860.56
2022-09-03T14:51:03.555Z,100684.84
2022-09-03T14:54:07.847Z,100681.75
2022-09-03T14:57:02.293Z,100551.94
2022-09-03T14:59:50.840Z,100555.53
2022-09-03T15:02:53.699Z,100610.06
2022-09-03T15:05:42.351Z,100612.97
2022-09-03T15:08:35.193Z,100656.25
2022-09-03T15:11:05.459Z,100591.97
2022-09-03T15:13:45.069Z,100674.06
2022-09-03T15:16:11.659Z,100714.19
2022-09-03T15:19:05.814Z,100618.91
2022-09-03T15:22:03.559Z,100565.41
2022-09-03T15:24:43.032Z,100641.84
2022-09-03T15:27:24.779Z,100645.97
2022-09-03T15:30:06.179Z,100608.56
2022-09-03T15:32:47.368Z,100535.78
2022-09-03T15:35:33.608Z,100517.00
2022-09-03T15:38:28.913Z,100586.38
2022-09-03T15:40:58.109Z,100569.69
2022-09-03T15:43:31.120Z,100514.69
2022-09-03T15:46:12.045Z,100550.56
2022-09-03T15:49:00.647Z,100579.19
2022-09-03T15:51:30.706Z,100537.22
2022-09-03T15:54:02.990Z,100559.13
2022-09-03T15:56:39.664Z,100588.41
2022-09-03T15:59:19.948Z,100578.63
2022-09-03T16:01:54.982Z,100701.59
2022-09-03T16:04:39.185Z,100772.34
2022-09-03T16:07:14.911Z,100796.75
2022-09-03T16:10:25.446Z,100822.16
2022-09-03T16:13:11.039Z,100820.28
2022-09-03T16:15:52.012Z,100753.47
2022-09-03T16:18:30.526Z,100815.44
2022-09-03T16:21:05.241Z,100894.50
2022-09-03T16:23:31.640Z,100896.41
2022-09-03T16:26:05.371Z,100889.31
2022-09-03T16:28:48.883Z,100918.84
2022-09-03T16:31:43.378Z,100858.47
2022-09-03T16:34:41.130Z,100931.19
2022-09-03T16:37:31.513Z,100971.84
2022-09-03T16:40:35.181Z,101024.28
2022-09-03T16:43:39.750Z,101018.59
2022-09-03T16:46:03.305Z,101097.63
2022-09-03T16:48:56.142Z,101110.50
2022-09-03T16:51:33.474Z,101111.97
2022-09-03T16:54:06.148Z,101124.31
2022-09-03T16:56:44.158Z,101108.41
2022-09-03T16:59:40.195Z,101146.63
2022-09-03T17:02:41.807Z,101192.00
2022-09-03T17:05:26.489Z,101174.41
2022-09-03T17:08:11.452Z,101207.72
2022-09-03T17:11:02.936Z,101205.16
2022-09-03T17:13:59.127Z,101228.97
2022-09-03T17:16:55.027Z,101258.84
2022-09-03T17:19:27.239Z,101252.41
2022-09-03T17:22:10.703Z,101246.41
2022-09-03T17:24:42.066Z,101310.56
2022-09-03T17:27:41.198Z,101417.69
2022-09-03T17:30:09.317Z,101471.91
2022-09-03T17:33:01.762Z,101463.72
2022-09-03T17:35:52.793Z,101525.81
2022-09-03T17:38:56.769Z,101617.41
2022-09-03T17:41:53.699Z,101713.66
2022-09-03T17:44:42.116Z,101743.06
2022-09-03T17:47:23.819Z,101800.41
2022-09-03T17:50:34.115Z,101831.31
2022-09-03T17:53:10.202Z,101848.63
2022-09-03T17:55:42.246Z,101879.38
2022-09-03T17:58:30.255Z,101893.09
2022-09-03T18:01:02.725Z,101902.53
2022-09-03T18:03:54.344Z,101912.88
2022-09-03T18:06:42.330Z,101924.41
2022-09-03T18:09:11.477Z,101949.38
2022-09-03T18:11:41.387Z,101949.75
2022-09-03T18:14:31.597Z,101965.38
2022-09-03T18:17:20.590Z,101956.63
2022-09-03T18:20:13.399Z,101970.22
2022-09-03T18:23:26.028Z,101979.25
2022-09-03T18:26:31.739Z,101980.56
2022-09-03T18:29:23.371Z,101986.06
2022-09-03T18:32:08.398Z,101991.47
2022-09-03T18:34:55.214Z,101987.41
2022-09-03T18:37:43.151Z,101994.53
2022-09-03T18:40:46.538Z,102005.16
2022-09-03T18:43:41.804Z,101996.72
2022-09-03T18:48:01.212Z,102000.22
2022-09-03T18:49:49.631Z,102003.13
2022-09-03T18:53:01.499Z,102001.88
2022-09-03T18:56:26.748Z,102007.38
2022-09-03T18:59:49.962Z,102011.16
2022-09-03T19:03:08.168Z,102010.44
2022-09-03T19:06:34.517Z,102007.63
2022-09-03T19:09:28.601Z,102010.34
2022-09-03T19:12:37.485Z,102015.47
2022-09-03T19:15:31.852Z,102022.69
2022-09-03T19:18:31.774Z,102016.75
2022-09-03T19:21:38.550Z,102025.13
2022-09-03T19:24:23.555Z,102017.94
2022-09-03T19:27:46.005Z,102030.50
2022-09-03T19:30:50.473Z,102025.59
2022-09-03T19:33:49.287Z,102034.50
2022-09-03T19:36:46.539Z,102033.75
2022-09-03T19:39:56.298Z,102034.91
2022-09-03T19:43:31.641Z,102030.56
2022-09-03T19:46:38.838Z,102033.19
2022-09-03T19:49:40.104Z,102038.81
2022-09-03T19:52:51.447Z,102037.53
2022-09-03T19:55:44.459Z,102031.91
2022-09-03T19:58:43.211Z,102041.25
2022-09-03T20:01:30.236Z,102035.31
2022-09-03T20:04:18.326Z,102031.50
2022-09-03T20:07:04.230Z,102026.53
2022-09-03T20:10:01.554Z,102030.38
2022-09-03T20:12:34.312Z,102032.09
2022-09-03T20:15:07.003Z,102033.81
2022-09-03T20:18:14.359Z,102032.50
2022-09-03T20:20:54.132Z,102038.41
2022-09-03T20:23:25.733Z,102035.94
2022-09-03T20:26:10.337Z,102042.69
2022-09-03T20:28:55.095Z,102031.34
2022-09-03T20:31:38.168Z,102032.31
2022-09-03T20:34:17.958Z,102040.22
2022-09-03T20:37:15.506Z,102052.13
2022-09-03T20:40:19.075Z,102050.41
2022-09-03T20:43:04.312Z,102047.72
2022-09-03T20:45:33.796Z,102044.50
2022-09-03T20:48:36.734Z,102044.91
2022-09-03T20:51:16.055Z,102038.97
2022-09-03T20:54:06.249Z,102033.63
2022-09-03T20:56:36.227Z,102042.03
2022-09-03T20:59:18.080Z,102040.59
2022-09-03T21:01:57.209Z,102030.69
2022-09-03T21:04:33.147Z,102034.94
2022-09-03T21:07:26.220Z,102030.34
2022-09-03T21:10:06.461Z,102027.91
2022-09-03T21:13:09.459Z,102027.69
2022-09-03T21:15:40.232Z,102029.34
2022-09-03T21:18:13.363Z,102026.38
2022-09-03T21:20:50.657Z,102022.75
2022-09-03T21:23:29.042Z,102023.78
2022-09-03T21:26:07.893Z,102025.53
2022-09-03T21:28:42.029Z,102022.56
2022-09-03T21:31:38.816Z,102018.75
2022-09-03T21:34:20.235Z,102020.78
2022-09-03T21:36:49.061Z,102020.97
2022-09-03T21:39:24.247Z,102016.66
2022-09-03T21:41:58.474Z,102005.78
2022-09-03T21:44:39.772Z,102005.00
2022-09-03T21:47:18.571Z,101996.41
2022-09-03T21:50:08.736Z,102004.63
2022-09-03T21:52:47.751Z,101995.66
2022-09-03T21:55:40.521Z,102002.72
2022-09-03T21:58:41.666Z,101993.66
2022-09-03T22:01:14.768Z,101987.81
2022-09-03T22:03:41.743Z,101987.47
2022-09-03T22:06:29.014Z,101985.06
2022-09-03T22:09:24.771Z,101975.78
2022-09-03T22:12:07.212Z,101974.25
2022-09-03T22:14:43.358Z,101975.25
2022-09-03T22:17:17.875Z,101969.38
2022-09-03T22:19:45.591Z,101962.25
2022-09-03T22:22:23.683Z,101961.00
2022-09-03T22:25:04.805Z,101962.81
2022-09-03T22:27:49.908Z,101953.81
2022-09-03T22:30:21.419Z,101955.19
2022-09-03T22:33:15.426Z,101954.22
2022-09-03T22:35:48.193Z,101939.78
2022-09-03T22:38:37.693Z,101945.97
2022-09-03T22:41:34.597Z,101940.63
2022-09-03T22:44:30.289Z,101945.13
2022-09-03T22:47:08.566Z,101947.69
2022-09-03T22:49:46.757Z,101940.41
2022-09-03T22:52:27.558Z,101941.13
2022-09-03T22:55:06.991Z,101949.94
2022-09-03T22:57:40.807Z,101957.41
2022-09-03T23:00:10.251Z,101952.97
2022-09-03T23:02:38.283Z,101948.97
2022-09-03T23:05:17.320Z,101946.09
2022-09-03T23:08:09.626Z,101954.50
2022-09-03T23:10:43.988Z,101953.06
2022-09-03T23:13:36.881Z,101951.66
2022-09-03T23:16:28.865Z,101956.22
2022-09-03T23:18:57.847Z,101959.28
2022-09-03T23:21:31.921Z,101962.41
2022-09-03T23:24:05.726Z,101966.50
2022-09-03T23:26:48.754Z,101969.25
2022-09-03T23:29:25.970Z,101977.63
2022-09-03T23:31:57.317Z,101969.25
2022-09-03T23:34:24.344Z,101967.59
2022-09-03T23:37:29.687Z,101971.22
2022-09-03T23:40:14.699Z,101977.53
2022-09-03T23:43:03.898Z,101983.34
2022-09-03T23:45:58.174Z,101982.16
2022-09-03T23:48:36.627Z,101981.59
2022-09-03T23:51:56.851Z,101984.59
2022-09-03T23:54:39.214Z,101974.69
2022-09-03T23:57:40.846Z,101979.50
